createdAt,value
2022-08-14T00:02:03.251Z,100.00
2022-08-14T00:04:35.703Z,100.00
2022-08-14T00:07:11.248Z,100.00
2022-08-14T00:09:55.496Z,100.00
2022-08-14T00:12:33.562Z,100.00
2022-08-14T00:15:29.850Z,100.00
2022-08-14T00:18:06.738Z,100.00
2022-08-14T00:20:43.068Z,100.00
2022-08-14T00:23:14.620Z,100.00
2022-08-14T00:25:53.683Z,100.00
2022-08-14T00:28:32.447Z,100.00
2022-08-14T00:31:01.997Z,100.00
2022-08-14T00:33:52.084Z,100.00
2022-08-14T00:36:37.229Z,100.00
2022-08-14T00:39:06.647Z,100.00
2022-08-14T00:41:36.731Z,100.00
2022-08-14T00:44:06.144Z,100.00
2022-08-14T00:46:33.482Z,100.00
2022-08-14T00:49:02.105Z,100.00
2022-08-14T00:51:34.661Z,100.00
2022-08-14T00:54:16.961Z,100.00
2022-08-14T00:56:50.575Z,100.00
2022-08-14T00:59:17.497Z,100.00
2022-08-14T01:01:45.363Z,100.00
2022-08-14T01:04:37.973Z,100.00
2022-08-14T01:07:00.990Z,100.00
2022-08-14T01:09:36.724Z,100.00
2022-08-14T01:12:05.552Z,100.00
2022-08-14T01:14:34.921Z,100.00
2022-08-14T01:17:04.436Z,100.00
2022-08-14T01:19:49.960Z,100.00
2022-08-14T01:22:20.814Z,100.00
2022-08-14T01:24:53.518Z,100.00
2022-08-14T01:27:24.437Z,100.00
2022-08-14T01:30:00.766Z,100.00
2022-08-14T01:32:45.198Z,100.00
2022-08-14T01:36:04.717Z,100.00
2022-08-14T01:38:05.835Z,100.00
2022-08-14T01:40:37.015Z,100.00
2022-08-14T01:43:18.597Z,100.00
2022-08-14T01:45:57.767Z,100.00
2022-08-14T01:48:37.085Z,100.00
2022-08-14T01:51:06.246Z,100.00
2022-08-14T01:53:54.937Z,100.00
2022-08-14T01:56:37.404Z,100.00
2022-08-14T01:59:19.701Z,100.00
2022-08-14T02:01:58.504Z,100.00
2022-08-14T02:04:40.993Z,100.00
2022-08-14T02:07:34.368Z,100.00
2022-08-14T02:10:13.152Z,100.00
2022-08-14T02:12:43.387Z,100.00
2022-08-14T02:15:10.891Z,100.00
2022-08-14T02:17:38.067Z,100.00
2022-08-14T02:20:08.691Z,100.00
2022-08-14T02:22:36.050Z,100.00
2022-08-14T02:25:14.839Z,100.00
2022-08-14T02:28:24.683Z,100.00
2022-08-14T02:30:33.938Z,100.00
2022-08-14T02:33:01.694Z,100.00
2022-08-14T02:35:32.804Z,100.00
2022-08-14T02:37:59.979Z,100.00
2022-08-14T02:40:32.486Z,100.00
2022-08-14T02:43:05.165Z,100.00
2022-08-14T02:45:38.285Z,100.00
2022-08-14T02:49:04.145Z,100.00
2022-08-14T02:51:00.521Z,100.00
2022-08-14T02:53:27.417Z,100.00
2022-08-14T02:56:03.091Z,100.00
2022-08-14T02:58:41.765Z,100.00
2022-08-14T03:01:10.329Z,100.00
2022-08-14T03:03:38.805Z,100.00
2022-08-14T03:06:08.915Z,100.00
2022-08-14T03:08:38.410Z,100.00
2022-08-14T03:11:07.753Z,100.00
2022-08-14T03:13:47.423Z,100.00
2022-08-14T03:16:19.873Z,100.00
2022-08-14T03:18:52.578Z,100.00
2022-08-14T03:21:23.003Z,100.00
2022-08-14T03:23:53.245Z,100.00
2022-08-14T03:26:30.270Z,100.00
2022-08-14T03:29:01.267Z,100.00
2022-08-14T03:31:29.281Z,100.00
2022-08-14T03:34:00.003Z,100.00
2022-08-14T03:37:39.071Z,100.00
2022-08-14T03:39:22.823Z,100.00
2022-08-14T03:41:53.460Z,100.00
2022-08-14T03:45:20.165Z,100.00
2022-08-14T03:47:08.398Z,100.00
2022-08-14T03:49:40.401Z,100.00
2022-08-14T03:52:37.726Z,100.00
2022-08-14T03:54:56.216Z,100.00
2022-08-14T03:57:22.966Z,100.00
2022-08-14T03:59:50.888Z,100.00
2022-08-14T04:02:33.099Z,100.00
2022-08-14T04:05:11.935Z,100.00
2022-08-14T04:07:49.937Z,100.00
2022-08-14T04:10:32.136Z,100.00
2022-08-14T04:13:03.706Z,100.00
2022-08-14T04:15:31.628Z,100.00
2022-08-14T04:18:02.785Z,100.00
2022-08-14T04:20:31.498Z,100.00
2022-08-14T04:22:58.335Z,100.00
2022-08-14T04:25:25.080Z,100.00
2022-08-14T04:28:02.344Z,100.00
2022-08-14T04:30:32.823Z,100.00
2022-08-14T04:33:06.382Z,100.00
2022-08-14T04:35:55.440Z,100.00
2022-08-14T04:38:42.204Z,100.00
2022-08-14T04:41:30.154Z,100.00
2022-08-14T04:43:57.467Z,100.00
2022-08-14T04:46:56.315Z,100.00
2022-08-14T04:49:15.224Z,100.00
2022-08-14T04:51:55.393Z,100.00
2022-08-14T04:54:27.072Z,100.00
2022-08-14T04:56:56.842Z,100.00
2022-08-14T04:59:24.933Z,100.00
2022-08-14T05:01:56.932Z,100.00
2022-08-14T05:04:25.182Z,100.00
2022-08-14T05:06:55.206Z,100.00
2022-08-14T05:09:23.934Z,100.00
2022-08-14T05:11:51.506Z,100.00
2022-08-14T05:14:46.478Z,100.00
2022-08-14T05:17:10.791Z,100.00
2022-08-14T05:19:44.734Z,100.00
2022-08-14T05:22:26.996Z,100.00
2022-08-14T05:24:54.376Z,100.00
2022-08-14T05:27:23.228Z,100.00
2022-08-14T05:29:56.716Z,100.00
2022-08-14T05:32:27.246Z,100.00
2022-08-14T05:34:58.479Z,100.00
2022-08-14T05:37:28.090Z,100.00
2022-08-14T05:39:55.282Z,100.00
2022-08-14T05:42:28.967Z,100.00
2022-08-14T05:44:58.656Z,100.00
2022-08-14T05:47:28.589Z,100.00
2022-08-14T05:50:02.054Z,100.00
2022-08-14T05:52:48.897Z,100.00
2022-08-14T05:55:16.713Z,100.00
2022-08-14T05:57:47.754Z,100.00
2022-08-14T06:00:29.069Z,100.00
2022-08-14T06:02:59.903Z,100.00
2022-08-14T06:05:28.520Z,100.00
2022-08-14T06:07:57.535Z,100.00
2022-08-14T06:10:25.271Z,100.00
2022-08-14T06:12:56.555Z,100.00
2022-08-14T06:15:29.398Z,100.00
2022-08-14T06:17:59.282Z,90.81
2022-08-14T06:20:26.708Z,82.11
2022-08-14T06:22:55.177Z,76.57
2022-08-14T06:25:23.247Z,70.19
2022-08-14T06:27:50.412Z,70.97
2022-08-14T06:30:19.606Z,67.41
2022-08-14T06:32:47.717Z,64.09
2022-08-14T06:35:23.536Z,61.59
2022-08-14T06:37:53.378Z,59.56
2022-08-14T06:40:34.261Z,54.08
2022-08-14T06:43:05.580Z,53.76
2022-08-14T06:45:36.149Z,57.64
2022-08-14T06:48:06.201Z,54.21
2022-08-14T06:50:39.295Z,52.60
2022-08-14T06:53:07.512Z,53.72
2022-08-14T06:55:37.095Z,51.85
2022-08-14T06:58:24.855Z,50.29
2022-08-14T07:01:14.855Z,52.92
2022-08-14T07:04:01.255Z,52.31
2022-08-14T07:06:46.863Z,52.52
2022-08-14T07:09:19.489Z,56.07
2022-08-14T07:11:49.754Z,59.41
2022-08-14T07:14:16.589Z,61.45
2022-08-14T07:16:43.599Z,63.42
2022-08-14T07:19:13.859Z,60.12
2022-08-14T07:21:41.731Z,59.47
2022-08-14T07:24:09.694Z,58.84
2022-08-14T07:26:48.455Z,62.74
2022-08-14T07:29:15.216Z,62.23
2022-08-14T07:31:44.495Z,60.72
2022-08-14T07:34:13.243Z,60.23
2022-08-14T07:37:01.131Z,61.95
2022-08-14T07:39:28.439Z,63.95
2022-08-14T07:41:56.582Z,64.09
2022-08-14T07:44:32.419Z,61.53
2022-08-14T07:47:04.411Z,58.66
2022-08-14T07:49:34.320Z,57.66
2022-08-14T07:52:05.242Z,58.87
2022-08-14T07:54:35.375Z,59.09
2022-08-14T07:57:12.131Z,64.93
2022-08-14T07:59:41.524Z,62.76
2022-08-14T08:02:19.361Z,61.13
2022-08-14T08:04:58.839Z,60.54
2022-08-14T08:07:31.431Z,50.49
2022-08-14T08:10:00.867Z,49.51
2022-08-14T08:12:31.073Z,50.46
2022-08-14T08:15:03.209Z,50.72
2022-08-14T08:17:42.579Z,53.72
2022-08-14T08:20:19.816Z,56.81
2022-08-14T08:22:49.911Z,48.12
2022-08-14T08:25:24.459Z,51.25
2022-08-14T08:28:09.039Z,51.40
2022-08-14T08:31:00.297Z,50.96
2022-08-14T08:33:37.475Z,45.41
2022-08-14T08:36:12.758Z,42.72
2022-08-14T08:39:15.063Z,40.56
2022-08-14T08:41:31.622Z,37.94
2022-08-14T08:44:05.979Z,38.53
2022-08-14T08:46:44.934Z,39.98
2022-08-14T08:49:14.691Z,37.11
2022-08-14T08:51:43.105Z,35.63
2022-08-14T08:54:18.404Z,35.56
2022-08-14T08:56:50.148Z,36.57
2022-08-14T08:59:27.327Z,38.50
2022-08-14T09:02:05.449Z,36.49
2022-08-14T09:04:52.841Z,38.75
2022-08-14T09:07:27.241Z,38.38
2022-08-14T09:09:59.897Z,36.93
2022-08-14T09:12:32.831Z,37.07
2022-08-14T09:15:12.428Z,36.65
2022-08-14T09:17:42.354Z,35.37
2022-08-14T09:20:11.853Z,39.10
2022-08-14T09:22:47.813Z,40.40
2022-08-14T09:25:16.425Z,41.32
2022-08-14T09:27:43.828Z,40.85
2022-08-14T09:30:30.744Z,40.93
2022-08-14T09:33:09.068Z,41.09
2022-08-14T09:36:10.720Z,39.18
2022-08-14T09:39:22.886Z,41.15
2022-08-14T09:42:21.796Z,40.66
2022-08-14T09:45:08.343Z,39.56
2022-08-14T09:47:47.129Z,44.34
2022-08-14T09:50:25.651Z,43.91
2022-08-14T09:52:58.096Z,42.59
2022-08-14T09:55:28.229Z,41.73
2022-08-14T09:58:36.030Z,42.79
2022-08-14T10:01:09.908Z,39.78
2022-08-14T10:03:38.492Z,40.59
2022-08-14T10:06:09.197Z,43.04
2022-08-14T10:08:54.426Z,42.45
2022-08-14T10:11:34.962Z,42.94
2022-08-14T10:14:35.707Z,39.73
2022-08-14T10:17:06.432Z,39.47
2022-08-14T10:19:36.435Z,39.62
2022-08-14T10:23:14.876Z,40.17
2022-08-14T10:25:00.695Z,42.85
2022-08-14T10:27:28.867Z,40.19
2022-08-14T10:30:01.809Z,42.79
2022-08-14T10:32:41.887Z,43.06
2022-08-14T10:35:16.991Z,41.40
2022-08-14T10:37:48.380Z,42.60
2022-08-14T10:40:37.862Z,41.88
2022-08-14T10:43:27.802Z,39.79
2022-08-14T10:47:36.878Z,38.51
2022-08-14T10:49:00.328Z,35.89
2022-08-14T10:51:30.141Z,35.30
2022-08-14T10:54:16.527Z,35.36
2022-08-14T10:56:52.402Z,36.17
2022-08-14T10:59:19.161Z,34.94
2022-08-14T11:01:45.924Z,37.34
2022-08-14T11:04:30.616Z,36.61
2022-08-14T11:06:58.734Z,36.43
2022-08-14T11:09:26.227Z,35.83
2022-08-14T11:12:36.295Z,36.64
2022-08-14T11:14:59.108Z,36.48
2022-08-14T11:17:32.045Z,36.32
2022-08-14T11:20:00.987Z,37.85
2022-08-14T11:22:55.994Z,38.07
2022-08-14T11:25:23.756Z,37.32
2022-08-14T11:27:53.593Z,37.91
2022-08-14T11:30:50.849Z,36.14
2022-08-14T11:33:12.795Z,38.95
2022-08-14T11:35:47.383Z,39.66
2022-08-14T11:38:17.192Z,36.73
2022-08-14T11:40:46.981Z,38.01
2022-08-14T11:43:15.204Z,38.64
2022-08-14T11:45:48.875Z,39.71
2022-08-14T11:49:02.106Z,36.88
2022-08-14T11:51:24.056Z,38.75
2022-08-14T11:54:03.129Z,39.07
2022-08-14T11:56:44.066Z,39.79
2022-08-14T11:59:18.179Z,39.03
2022-08-14T12:01:48.959Z,37.38
2022-08-14T12:04:32.377Z,35.93
2022-08-14T12:07:01.801Z,33.55
2022-08-14T12:09:34.378Z,35.26
2022-08-14T12:12:13.036Z,35.47
2022-08-14T12:15:00.101Z,36.02
2022-08-14T12:17:28.776Z,37.92
2022-08-14T12:20:05.100Z,37.52
2022-08-14T12:22:42.297Z,37.66
2022-08-14T12:25:15.016Z,38.69
2022-08-14T12:27:53.978Z,38.33
2022-08-14T12:30:35.910Z,35.42
2022-08-14T12:33:08.902Z,36.66
2022-08-14T12:35:45.844Z,37.09
2022-08-14T12:38:14.846Z,36.48
2022-08-14T12:40:51.897Z,36.98
2022-08-14T12:43:21.961Z,37.84
2022-08-14T12:45:51.342Z,36.20
2022-08-14T12:48:21.003Z,37.38
2022-08-14T12:50:58.273Z,36.51
2022-08-14T12:53:38.507Z,35.85
2022-08-14T12:56:22.440Z,35.30
2022-08-14T12:58:59.231Z,35.81
2022-08-14T13:02:00.362Z,36.02
2022-08-14T13:04:19.138Z,35.08
2022-08-14T13:06:50.590Z,35.59
2022-08-14T13:09:19.148Z,34.35
2022-08-14T13:11:58.495Z,34.94
2022-08-14T13:14:47.929Z,34.42
2022-08-14T13:17:15.845Z,33.82
2022-08-14T13:19:45.500Z,33.49
2022-08-14T13:22:28.971Z,33.74
2022-08-14T13:25:00.282Z,35.87
2022-08-14T13:27:31.400Z,35.93
2022-08-14T13:30:01.863Z,36.10
2022-08-14T13:32:30.543Z,35.54
2022-08-14T13:34:58.665Z,35.38
2022-08-14T13:37:27.599Z,35.36
2022-08-14T13:39:56.691Z,35.09
2022-08-14T13:42:35.360Z,35.77
2022-08-14T13:45:04.518Z,34.13
2022-08-14T13:47:32.585Z,35.49
2022-08-14T13:50:04.506Z,35.39
2022-08-14T13:52:55.308Z,35.15
2022-08-14T13:55:31.453Z,34.69
2022-08-14T13:58:03.617Z,34.82
2022-08-14T14:00:35.737Z,35.21
2022-08-14T14:03:24.345Z,34.32
2022-08-14T14:05:54.921Z,35.06
2022-08-14T14:08:43.663Z,35.22
2022-08-14T14:11:15.799Z,33.99
2022-08-14T14:13:45.298Z,35.21
2022-08-14T14:16:21.894Z,35.45
2022-08-14T14:18:56.592Z,35.54
2022-08-14T14:21:28.508Z,35.82
2022-08-14T14:23:56.470Z,35.49
2022-08-14T14:26:24.809Z,35.08
2022-08-14T14:28:57.099Z,35.80
2022-08-14T14:31:30.360Z,36.39
2022-08-14T14:34:07.781Z,36.98
2022-08-14T14:36:50.111Z,35.56
2022-08-14T14:39:22.116Z,35.39
2022-08-14T14:41:55.952Z,35.90
2022-08-14T14:44:32.240Z,35.38
2022-08-14T14:46:59.254Z,35.20
2022-08-14T14:49:42.133Z,35.52
2022-08-14T14:52:27.090Z,35.07
2022-08-14T14:54:57.193Z,35.64
2022-08-14T14:57:35.603Z,36.93
2022-08-14T15:00:08.601Z,35.47
2022-08-14T15:02:43.189Z,35.65
2022-08-14T15:05:12.584Z,35.84
2022-08-14T15:07:40.294Z,35.28
2022-08-14T15:10:27.987Z,35.90
2022-08-14T15:12:57.775Z,36.19
2022-08-14T15:15:27.525Z,36.36
2022-08-14T15:17:54.744Z,36.01
2022-08-14T15:20:30.129Z,36.46
2022-08-14T15:22:58.942Z,36.77
2022-08-14T15:25:30.147Z,36.53
2022-08-14T15:28:01.792Z,36.11
2022-08-14T15:30:32.204Z,36.63
2022-08-14T15:32:59.882Z,36.08
2022-08-14T15:35:33.881Z,36.94
2022-08-14T15:38:08.035Z,36.30
2022-08-14T15:40:41.078Z,36.21
2022-08-14T15:43:12.802Z,36.70
2022-08-14T15:45:41.361Z,36.76
2022-08-14T15:48:12.631Z,37.30
2022-08-14T15:50:50.866Z,37.13
2022-08-14T15:53:18.625Z,37.44
2022-08-14T15:55:46.671Z,37.39
2022-08-14T15:58:15.081Z,37.81
2022-08-14T16:01:00.494Z,38.42
2022-08-14T16:03:36.582Z,38.97
2022-08-14T16:06:15.765Z,39.03
2022-08-14T16:08:50.432Z,39.22
2022-08-14T16:11:26.570Z,39.61
2022-08-14T16:13:57.521Z,40.30
2022-08-14T16:16:35.017Z,40.18
2022-08-14T16:19:18.462Z,42.60
2022-08-14T16:22:02.514Z,46.57
2022-08-14T16:25:00.134Z,55.72
2022-08-14T16:27:38.711Z,57.21
2022-08-14T16:30:20.682Z,58.06
2022-08-14T16:32:54.849Z,68.64
2022-08-14T16:35:42.697Z,72.65
2022-08-14T16:38:35.800Z,69.87
2022-08-14T16:41:23.316Z,70.94
2022-08-14T16:43:58.937Z,68.26
2022-08-14T16:46:28.311Z,65.45
2022-08-14T16:48:58.029Z,65.40
2022-08-14T16:51:28.151Z,63.99
2022-08-14T16:53:56.752Z,58.80
2022-08-14T16:56:28.165Z,56.59
2022-08-14T16:59:07.061Z,54.55
2022-08-14T17:01:36.799Z,58.40
2022-08-14T17:04:25.226Z,60.00
2022-08-14T17:06:57.706Z,61.60
2022-08-14T17:09:35.634Z,62.79
2022-08-14T17:12:08.454Z,62.42
2022-08-14T17:15:03.871Z,60.56
2022-08-14T17:17:40.586Z,60.86
2022-08-14T17:20:53.504Z,59.86
2022-08-14T17:23:03.285Z,59.45
2022-08-14T17:25:39.073Z,59.72
2022-08-14T17:28:51.863Z,60.00
2022-08-14T17:31:07.884Z,60.47
2022-08-14T17:33:44.189Z,61.84
2022-08-14T17:36:22.393Z,62.64
2022-08-14T17:39:11.784Z,63.49
2022-08-14T17:42:03.053Z,65.13
2022-08-14T17:44:34.002Z,64.67
2022-08-14T17:47:13.636Z,65.52
2022-08-14T17:49:52.013Z,65.49
2022-08-14T17:52:34.404Z,65.72
2022-08-14T17:55:06.494Z,67.24
2022-08-14T17:57:35.170Z,66.34
2022-08-14T18:00:11.521Z,69.27
2022-08-14T18:02:41.250Z,64.87
2022-08-14T18:05:23.694Z,64.98
2022-08-14T18:08:34.050Z,64.37
2022-08-14T18:10:56.783Z,63.93
2022-08-14T18:13:49.830Z,65.80
2022-08-14T18:16:20.390Z,68.06
2022-08-14T18:18:51.404Z,67.16
2022-08-14T18:21:40.420Z,68.30
2022-08-14T18:24:28.653Z,67.58
2022-08-14T18:27:01.926Z,66.75
2022-08-14T18:29:31.640Z,67.05
2022-08-14T18:31:59.913Z,66.17
2022-08-14T18:34:36.960Z,64.41
2022-08-14T18:37:17.319Z,65.60
2022-08-14T18:40:03.314Z,65.19
2022-08-14T18:42:34.878Z,67.05
2022-08-14T18:45:02.029Z,66.67
2022-08-14T18:48:05.399Z,65.58
2022-08-14T18:50:32.401Z,65.84
2022-08-14T18:53:10.673Z,67.11
2022-08-14T18:55:52.718Z,67.88
2022-08-14T18:58:31.768Z,68.34
2022-08-14T19:01:02.479Z,69.20
2022-08-14T19:03:36.506Z,69.92
2022-08-14T19:06:09.544Z,71.88
2022-08-14T19:08:48.282Z,73.07
2022-08-14T19:11:37.189Z,75.62
2022-08-14T19:14:06.644Z,73.84
2022-08-14T19:16:42.838Z,72.50
2022-08-14T19:19:12.563Z,73.40
2022-08-14T19:21:55.304Z,72.42
2022-08-14T19:24:43.910Z,71.23
2022-08-14T19:27:25.168Z,71.07
2022-08-14T19:30:20.169Z,71.15
2022-08-14T19:32:56.105Z,69.91
2022-08-14T19:35:49.685Z,69.48
2022-08-14T19:38:37.746Z,70.43
2022-08-14T19:41:19.231Z,72.24
2022-08-14T19:43:50.928Z,75.37
2022-08-14T19:46:38.941Z,75.03
2022-08-14T19:49:22.982Z,71.94
2022-08-14T19:51:51.021Z,71.97
2022-08-14T19:54:29.037Z,72.31
2022-08-14T19:57:01.160Z,71.40
2022-08-14T19:59:36.633Z,72.67
2022-08-14T20:02:30.042Z,74.98
2022-08-14T20:05:03.643Z,75.64
2022-08-14T20:08:00.503Z,77.28
2022-08-14T20:11:03.835Z,78.52
2022-08-14T20:13:32.235Z,79.76
2022-08-14T20:16:11.967Z,78.41
2022-08-14T20:18:50.826Z,77.92
2022-08-14T20:21:18.737Z,75.73
2022-08-14T20:23:47.967Z,74.96
2022-08-14T20:26:30.893Z,75.24
2022-08-14T20:29:04.607Z,77.15
2022-08-14T20:31:36.378Z,78.50
2022-08-14T20:34:19.249Z,80.06
2022-08-14T20:37:17.412Z,80.04
2022-08-14T20:39:54.487Z,80.17
2022-08-14T20:42:43.882Z,82.14
2022-08-14T20:45:18.871Z,83.34
2022-08-14T20:48:01.511Z,83.25
2022-08-14T20:50:30.010Z,83.73
2022-08-14T20:52:58.583Z,85.68
2022-08-14T20:55:29.264Z,88.00
2022-08-14T20:57:58.899Z,89.16
2022-08-14T21:00:52.337Z,90.34
2022-08-14T21:03:30.085Z,91.89
2022-08-14T21:05:59.323Z,91.73
2022-08-14T21:08:27.811Z,93.25
2022-08-14T21:10:56.747Z,93.64
2022-08-14T21:14:08.839Z,93.80
2022-08-14T21:16:34.197Z,94.91
2022-08-14T21:19:00.218Z,95.10
2022-08-14T21:21:41.898Z,95.13
2022-08-14T21:24:10.157Z,95.80
2022-08-14T21:27:04.446Z,96.57
2022-08-14T21:29:40.874Z,97.91
2022-08-14T21:32:33.633Z,98.27
2022-08-14T21:35:02.244Z,99.05
2022-08-14T21:37:34.659Z,100.00
2022-08-14T21:40:01.878Z,100.00
2022-08-14T21:42:48.412Z,100.00
2022-08-14T21:45:15.119Z,100.00
2022-08-14T21:47:43.382Z,100.00
2022-08-14T21:50:56.338Z,100.00
2022-08-14T21:53:00.577Z,100.00
2022-08-14T21:55:27.366Z,100.00
2022-08-14T21:58:46.030Z,100.00
2022-08-14T22:00:49.238Z,100.00
2022-08-14T22:03:24.297Z,100.00
2022-08-14T22:05:53.161Z,100.00
2022-08-14T22:08:27.066Z,100.00
2022-08-14T22:10:55.061Z,100.00
2022-08-14T22:13:26.723Z,100.00
2022-08-14T22:16:02.289Z,100.00
2022-08-14T22:18:30.971Z,100.00
2022-08-14T22:20:59.160Z,100.00
2022-08-14T22:23:27.920Z,100.00
2022-08-14T22:25:55.439Z,100.00
2022-08-14T22:28:33.368Z,100.00
2022-08-14T22:31:03.812Z,100.00
2022-08-14T22:33:38.048Z,100.00
2022-08-14T22:36:26.209Z,100.00
2022-08-14T22:38:54.433Z,100.00
2022-08-14T22:41:27.529Z,100.00
2022-08-14T22:44:19.927Z,100.00
2022-08-14T22:46:48.402Z,100.00
2022-08-14T22:50:30.274Z,100.00
2022-08-14T22:52:32.995Z,100.00
2022-08-14T22:54:54.566Z,100.00
2022-08-14T22:57:22.558Z,100.00
2022-08-14T22:59:50.329Z,100.00
2022-08-14T23:02:22.453Z,100.00
2022-08-14T23:04:57.186Z,100.00
2022-08-14T23:07:26.018Z,100.00
2022-08-14T23:10:33.035Z,100.00
2022-08-14T23:12:59.594Z,100.00
2022-08-14T23:15:30.213Z,100.00
2022-08-14T23:17:57.673Z,100.00
2022-08-14T23:20:29.525Z,100.00
2022-08-14T23:22:57.281Z,100.00
2022-08-14T23:25:45.805Z,100.00
2022-08-14T23:28:32.697Z,100.00
2022-08-14T23:31:01.867Z,100.00
2022-08-14T23:33:28.859Z,100.00
2022-08-14T23:35:59.519Z,100.00
2022-08-14T23:38:31.048Z,100.00
2022-08-14T23:40:58.751Z,100.00
2022-08-14T23:43:31.058Z,100.00
2022-08-14T23:45:58.301Z,100.00
2022-08-14T23:48:28.175Z,100.00
2022-08-14T23:50:55.403Z,100.00
2022-08-14T23:53:48.305Z,100.00
2022-08-14T23:56:18.518Z,100.00
2022-08-14T23:58:49.087Z,100.00
